Time;durP1;ratioP1;P1;durP2;ratioP2;P2;SDS_P1;SDS_P2;PMS_P1;PMS_P2;Temp;Humidity;BMP_temperature;BMP_pressure;BME280_temperature;BME280_humidity;BME280_pressure;Samples;Min_cycle;Max_cycle;Signal;HPM_P1;HPM_P2
2022/05/06 00:00:26;;;;;;;2.67;2.10;;;16.10;40.60;;;14.02;44.69;101977.06;12239559;19;20006;-79
2022/05/06 00:04:27;;;;;;;1.60;1.50;;;16.00;40.60;;;13.97;44.77;101978.22;12241948;19;20415;-79
2022/05/06 00:08:29;;;;;;;2.75;1.80;;;16.10;40.70;;;13.92;44.74;101970.56;12243317;19;20019;-79
2022/05/06 00:12:32;;;;;;;2.20;1.80;;;16.00;40.70;;;13.82;44.79;101966.66;12244011;19;20046;-79
2022/05/06 00:16:33;;;;;;;2.47;1.80;;;16.00;40.70;;;13.72;44.72;101959.25;12240236;19;20070;-78
2022/05/06 00:20:35;;;;;;;2.65;1.67;;;15.90;40.70;;;13.81;44.79;101975.47;12240595;19;20019;-79
2022/05/06 00:24:38;;;;;;;1.90;1.80;;;15.90;40.90;;;13.55;44.90;101943.47;12242697;19;20367;-79
2022/05/06 00:28:40;;;;;;;1.77;1.67;;;15.80;40.80;;;13.46;44.91;101943.91;12244270;19;20383;-79
2022/05/06 00:32:41;;;;;;;2.92;1.75;;;15.80;40.90;;;13.62;44.99;101979.00;12241388;19;20006;-79
2022/05/06 00:36:44;;;;;;;2.33;1.75;;;15.60;40.90;;;13.37;45.16;101957.47;12241402;19;20014;-79
2022/05/06 00:40:46;;;;;;;3.20;1.70;;;15.70;41.00;;;13.39;45.25;101984.47;12244470;19;20024;-79
2022/05/06 00:44:48;;;;;;;1.58;1.45;;;15.60;41.00;;;13.41;45.34;101998.38;12244608;19;20010;-79
2022/05/06 00:48:50;;;;;;;1.90;1.70;;;15.50;41.00;;;13.34;45.21;101995.19;12243385;19;20013;-79
2022/05/06 00:52:54;;;;;;;1.67;1.58;;;15.50;41.10;;;12.99;45.24;101949.59;12240247;19;20474;-79
2022/05/06 00:56:56;;;;;;;1.95;1.75;;;15.20;41.00;;;13.05;45.27;101970.28;12237583;19;20047;-79
2022/05/06 01:00:58;;;;;;;1.88;1.77;;;15.30;41.00;;;13.12;45.32;101986.56;12241617;19;20022;-79
2022/05/06 01:05:01;;;;;;;2.47;2.17;;;15.20;41.00;;;12.88;45.35;101959.69;12239872;19;20077;-79
2022/05/06 01:09:04;;;;;;;2.40;2.05;;;15.20;41.10;;;12.92;45.41;101974.38;12240892;19;20344;-79
2022/05/06 01:13:06;;;;;;;1.90;1.70;;;15.10;41.00;;;12.74;45.64;101971.63;12239854;19;20010;-79
2022/05/06 01:17:09;;;;;;;2.92;2.17;;;15.10;41.00;;;12.83;45.55;102010.56;12239168;19;20010;-78
2022/05/06 01:21:26;;;;;;;2.17;1.88;;;15.00;41.10;;;12.53;45.82;101962.09;12241877;19;20018;-79
2022/05/06 01:25:28;;;;;;;2.20;2.00;;;14.90;41.30;;;12.65;45.72;101989.53;12242331;19;20082;-79
2022/05/06 01:29:31;;;;;;;2.47;2.10;;;14.80;41.30;;;12.40;45.57;101964.41;12242116;19;20011;-78
2022/05/06 01:33:35;;;;;;;3.53;2.63;;;14.80;41.20;;;12.42;45.88;101975.66;12240081;19;20022;-79
2022/05/06 01:37:40;;;;;;;3.47;2.15;;;14.70;41.30;;;12.39;45.81;101970.53;12239392;19;20037;-79
2022/05/06 01:41:45;;;;;;;2.80;2.00;;;14.70;41.40;;;12.23;45.87;101957.25;12242394;19;20015;-79
2022/05/06 01:45:52;;;;;;;2.88;1.92;;;14.60;41.40;;;11.89;45.96;101919.41;12239977;19;20356;-79
2022/05/06 01:50:00;;;;;;;3.08;2.17;;;14.40;41.40;;;12.23;45.86;101991.28;12240932;19;20022;-79
2022/05/06 01:54:05;;;;;;;4.28;1.83;;;14.50;41.50;;;12.12;46.03;101973.44;12232629;19;20014;-79
2022/05/06 01:58:09;;;;;;;3.67;2.90;;;14.20;41.40;;;12.08;46.12;101984.09;12239107;19;20479;-79
2022/05/06 02:02:18;;;;;;;1.83;1.67;;;14.40;41.50;;;12.02;45.98;101976.50;12235115;19;20015;-79
2022/05/06 02:06:20;;;;;;;2.45;1.85;;;14.30;41.50;;;11.65;46.11;101916.00;12237866;19;20010;-79
2022/05/06 02:10:31;;;;;;;1.80;1.70;;;14.10;41.60;;;12.04;46.06;101985.13;12237594;19;20050;-79
2022/05/06 02:14:39;;;;;;;2.63;1.75;;;14.30;41.70;;;12.00;46.18;101980.94;12234618;19;20014;-79
2022/05/06 02:19:07;;;;;;;2.13;1.98;;;14.20;41.60;;;12.00;46.08;101994.88;12236130;19;20068;-79
2022/05/06 02:23:28;;;;;;;1.95;1.83;;;14.20;41.60;;;11.78;46.12;101962.59;12237956;19;20024;-79
2022/05/06 02:27:46;;;;;;;2.20;1.63;;;14.10;41.60;;;11.85;46.11;101983.22;12249798;19;20010;-79
2022/05/06 02:36:11;;;;;;;2.40;1.83;;;13.90;41.60;;;11.83;46.35;101997.31;12250739;19;20010;-79
2022/05/06 02:40:14;;;;;;;4.47;2.20;;;14.00;41.70;;;11.74;46.22;101993.25;12252054;19;20019;-79
2022/05/06 02:44:16;;;;;;;3.08;2.03;;;14.00;41.70;;;11.60;46.24;101978.09;12244425;19;20025;-79
2022/05/06 02:48:20;;;;;;;2.25;1.98;;;13.90;41.70;;;11.50;46.50;101990.72;12248917;19;20451;-79
2022/05/06 02:52:23;;;;;;;2.10;1.90;;;13.90;41.60;;;11.27;46.50;101967.19;12248682;19;20496;-79
2022/05/06 02:56:27;;;;;;;2.00;1.77;;;13.70;41.80;;;11.30;46.58;101982.75;12246870;19;20035;-78
2022/05/06 03:00:33;;;;;;;;;;;13.70;41.80;;;11.36;46.20;102000.84;12250142;19;20505;-79
2022/05/06 03:04:38;;;;;;;1.92;1.70;;;13.60;41.50;;;11.19;46.40;101996.25;12243977;19;19914;-79
2022/05/06 03:08:41;;;;;;;3.47;2.40;;;13.60;41.70;;;11.18;46.57;102009.38;12246421;19;20018;-78
2022/05/06 03:12:44;;;;;;;4.22;2.97;;;13.60;41.70;;;11.14;46.51;102015.63;12246278;19;20013;-78
2022/05/06 03:16:51;;;;;;;2.80;2.53;;;13.50;41.70;;;10.96;46.58;101994.47;12244403;19;20021;-79
2022/05/06 03:20:53;;;;;;;3.10;2.28;;;13.40;41.70;;;11.10;46.74;102021.88;12250070;19;20010;-79
2022/05/06 03:24:55;;;;;;;2.80;2.60;;;13.30;41.80;;;11.04;46.57;102021.22;12245311;19;20019;-79
2022/05/06 03:28:57;;;;;;;2.88;2.67;;;13.30;41.90;;;10.95;46.64;102005.00;12248072;19;20585;-79
2022/05/06 03:33:00;;;;;;;4.47;3.08;;;13.30;41.90;;;10.92;46.75;102012.94;12244996;19;20086;-80
2022/05/06 03:37:04;;;;;;;2.47;2.28;;;13.20;41.90;;;10.68;46.73;101988.53;12243400;19;20085;-79
2022/05/06 03:41:06;;;;;;;2.95;2.65;;;13.10;41.90;;;10.60;46.89;101997.47;12247623;19;20026;-78
2022/05/06 03:45:09;;;;;;;3.38;3.08;;;13.00;41.80;;;10.54;46.90;102008.16;12244561;19;20018;-78
2022/05/06 03:49:13;;;;;;;3.03;2.33;;;13.00;41.80;;;10.30;46.73;101975.06;12247643;19;20487;-79
2022/05/06 03:53:16;;;;;;;3.10;2.70;;;13.00;41.90;;;10.52;46.90;102030.00;12240246;19;20046;-79
2022/05/06 03:57:20;;;;;;;2.33;2.13;;;12.90;41.90;;;10.39;46.91;102019.97;12237677;19;20019;-78
2022/05/06 04:01:24;;;;;;;2.28;2.08;;;12.80;41.90;;;10.37;46.95;102027.00;12245972;19;20014;-78
2022/05/06 04:05:30;;;;;;;2.20;2.00;;;12.70;41.90;;;10.14;47.11;102009.44;12244016;19;20023;-78
2022/05/06 04:09:35;;;;;;;3.53;2.50;;;12.60;42.10;;;10.17;47.06;102025.00;12231868;19;20034;-78
2022/05/06 04:13:37;;;;;;;3.22;2.13;;;12.60;42.30;;;10.30;47.24;102048.16;12239265;19;20006;-78
2022/05/06 04:17:40;;;;;;;3.08;2.10;;;12.60;42.40;;;10.16;47.19;102033.75;12235996;19;20085;-78
2022/05/06 04:26:11;;;;;;;2.25;2.05;;;12.50;42.50;;;10.05;47.42;102014.97;12242051;19;20046;-80
2022/05/06 04:30:17;;;;;;;3.25;2.20;;;12.40;42.70;;;10.18;47.27;102036.34;12241756;19;20027;-79
2022/05/06 04:34:31;;;;;;;4.90;2.20;;;12.40;42.60;;;10.40;47.41;102070.47;12234906;19;20022;-79
2022/05/06 04:38:34;;;;;;;3.28;2.13;;;12.50;42.80;;;10.03;47.42;102005.50;12237884;19;20018;-79
2022/05/06 04:42:39;;;;;;;4.53;1.77;;;12.60;42.90;;;10.49;47.55;102072.75;12236543;19;20863;-79
2022/05/06 04:46:41;;;;;;;2.20;2.03;;;12.60;43.00;;;10.48;47.53;102080.66;12234341;19;20355;-79
2022/05/06 04:50:44;;;;;;;5.60;2.45;;;12.40;42.90;;;10.34;47.64;102061.06;12238955;19;20011;-79
2022/05/06 04:54:46;;;;;;;2.30;2.08;;;12.70;43.10;;;10.41;47.83;102087.81;12235999;19;20021;-79
2022/05/06 04:58:49;;;;;;;2.83;2.17;;;12.70;43.20;;;9.82;47.84;101986.16;12236413;19;20010;-79
2022/05/06 05:03:00;;;;;;;2.97;2.40;;;12.70;43.40;;;10.02;47.88;102028.13;12237211;19;20014;-79
2022/05/06 05:07:04;;;;;;;3.88;2.33;;;12.70;43.50;;;10.25;47.98;102071.75;12236388;19;20014;-79
2022/05/06 05:11:08;;;;;;;2.75;2.55;;;12.70;43.70;;;10.23;48.01;102070.09;12235356;19;20405;-79
2022/05/06 05:15:17;;;;;;;5.30;2.30;;;12.70;43.90;;;10.33;48.33;102093.28;12230590;19;20006;-79
2022/05/06 05:19:19;;;;;;;2.25;2.15;;;12.70;44.10;;;10.41;48.42;102096.50;12235393;19;20021;-79
2022/05/06 05:23:29;;;;;;;2.05;1.85;;;12.70;44.30;;;10.05;48.49;102025.41;12234670;19;20058;-79
2022/05/06 05:27:33;;;;;;;2.58;2.25;;;12.70;44.50;;;10.49;48.58;102077.13;12233661;19;20043;-79
2022/05/06 05:31:37;;;;;;;5.35;2.40;;;12.80;44.80;;;10.69;48.85;102106.03;12235172;19;20011;-79
2022/05/06 05:35:39;;;;;;;2.53;2.33;;;13.00;45.20;;;10.63;48.87;102069.66;12233706;19;20021;-79
2022/05/06 05:39:43;;;;;;;2.53;2.28;;;12.90;45.50;;;10.79;49.10;102077.84;12235392;19;20014;-79
2022/05/06 05:48:21;;;;;;;2.72;2.42;;;13.20;46.60;;;11.31;49.46;102062.91;12235344;19;20077;-79
2022/05/06 05:52:42;;;;;;;6.03;2.63;;;13.10;47.00;;;11.85;49.25;102084.44;12233873;19;20017;-81
2022/05/06 05:56:45;;;;;;;3.67;2.25;;;13.60;47.50;;;12.24;49.24;102079.44;12232493;19;20018;-80
2022/05/06 06:00:47;;;;;;;3.22;2.70;;;13.90;47.70;;;12.62;49.55;102080.47;12232937;19;20034;-79
2022/05/06 06:04:51;;;;;;;3.10;2.80;;;14.30;47.80;;;12.94;49.43;102073.00;12232427;19;20022;-80
2022/05/06 06:08:53;;;;;;;3.50;3.20;;;14.70;47.20;;;13.40;49.33;102109.50;12233871;19;20017;-80
2022/05/06 06:12:56;;;;;;;2.95;2.38;;;15.00;46.70;;;13.36;49.25;102063.31;12231528;19;20019;-80
2022/05/06 06:16:58;;;;;;;2.90;2.40;;;15.20;46.30;;;13.58;49.14;102069.28;12229457;19;20021;-80
2022/05/06 06:21:02;;;;;;;5.05;3.40;;;15.60;46.30;;;13.98;49.05;102106.81;12234980;19;20033;-79
2022/05/06 06:25:06;;;;;;;4.15;2.83;;;15.50;45.90;;;14.10;48.95;102092.25;12230693;19;20039;-80
2022/05/06 06:29:09;;;;;;;7.85;3.40;;;16.00;45.70;;;14.29;48.87;102106.22;12232529;19;20110;-80
2022/05/06 06:33:11;;;;;;;3.15;2.83;;;16.20;45.50;;;14.41;48.74;102086.34;12234362;19;20021;-80
2022/05/06 06:37:12;;;;;;;4.07;2.60;;;16.30;45.10;;;14.53;48.58;102091.03;12231104;19;20023;-80
2022/05/06 06:41:22;;;;;;;7.35;2.42;;;16.60;44.70;;;14.67;48.61;102090.34;12232670;19;20031;-81
2022/05/06 06:45:25;;;;;;;3.70;2.05;;;16.60;44.50;;;14.80;48.48;102087.94;12232159;19;20479;-81
2022/05/06 06:49:45;;;;;;;3.42;2.15;;;16.70;44.30;;;15.10;48.42;102121.50;12232135;19;20025;-80
2022/05/06 06:54:16;;;;;;;5.25;2.50;;;17.00;44.00;;;15.24;48.06;102119.00;12220816;19;20046;-80
2022/05/06 06:58:18;;;;;;;2.92;2.15;;;17.10;43.50;;;15.31;48.06;102112.47;12233668;19;20045;-80
2022/05/06 07:02:19;;;;;;;3.53;2.30;;;17.10;43.30;;;15.45;47.94;102124.91;12230179;19;20014;-80
2022/05/06 07:15:02;;;;;;;3.33;2.38;;;17.70;43.30;;;15.76;47.81;102125.91;12239175;19;20367;-80
2022/05/06 07:19:04;;;;;;;6.50;3.00;;;17.60;43.20;;;15.92;47.71;102132.03;12240856;19;20018;-81
2022/05/06 07:23:06;;;;;;;4.32;3.25;;;17.80;43.20;;;16.09;47.61;102131.97;12241455;19;20011;-80
2022/05/06 07:27:08;;;;;;;5.65;2.97;;;18.00;43.00;;;16.15;47.35;102122.88;12240202;19;20014;-82
2022/05/06 07:31:10;;;;;;;3.58;2.50;;;18.10;43.00;;;16.47;47.34;102143.88;12241670;19;20014;-81
2022/05/06 07:35:12;;;;;;;4.10;2.63;;;18.30;42.90;;;16.67;47.43;102129.56;12243041;19;20014;-81
2022/05/06 07:39:15;;;;;;;3.20;2.33;;;18.40;43.00;;;16.94;47.16;102146.44;12239617;19;20014;-81
2022/05/06 07:43:16;;;;;;;3.83;2.78;;;18.70;42.90;;;17.03;47.14;102121.28;12237160;19;20006;-80
2022/05/06 07:47:18;;;;;;;3.78;2.45;;;18.90;42.80;;;17.23;46.99;102114.81;12239162;19;20089;-80
2022/05/06 07:51:20;;;;;;;5.05;3.35;;;19.10;42.60;;;17.44;46.84;102131.97;12244633;19;20011;-79
2022/05/06 07:55:22;;;;;;;4.00;2.67;;;19.10;42.10;;;17.58;46.72;102138.16;12238622;19;20115;-80
2022/05/06 07:59:24;;;;;;;4.90;2.53;;;19.50;42.00;;;17.73;46.60;102120.53;12240226;19;20022;-80
2022/05/06 08:07:46;;;;;;;3.63;3.13;;;19.70;42.40;;;18.18;46.64;102143.22;12242005;19;20014;-79
2022/05/06 08:11:48;;;;;;;5.00;2.92;;;19.90;41.70;;;18.29;46.27;102146.00;12240698;19;20046;-80
2022/05/06 08:15:52;;;;;;;3.15;2.85;;;20.10;41.60;;;18.44;46.17;102138.00;12237234;19;20658;-81
2022/05/06 08:19:55;;;;;;;3.55;2.75;;;20.20;41.50;;;18.56;45.96;102119.53;12240847;19;20052;-79
2022/05/06 08:23:57;;;;;;;4.65;2.33;;;20.20;41.40;;;18.63;46.26;102095.28;12235931;19;20023;-81
2022/05/06 08:27:58;;;;;;;3.03;2.58;;;20.60;41.50;;;19.07;45.87;102115.28;12235033;19;20015;-80
2022/05/06 08:32:00;;;;;;;5.72;2.65;;;20.80;41.20;;;19.11;45.78;102096.41;12225464;19;20022;-80
2022/05/06 08:36:04;;;;;;;4.28;2.65;;;21.00;41.20;;;19.52;45.53;102129.75;12234162;19;20018;-81
2022/05/06 08:40:22;;;;;;;4.38;2.75;;;21.30;41.20;;;19.29;45.72;102083.69;12239279;19;20018;-81
2022/05/06 08:53:08;;;;;;;2.50;2.30;;;21.60;40.40;;;19.84;45.12;102122.19;12237824;19;20042;-81
2022/05/06 08:57:10;;;;;;;3.83;2.15;;;21.70;40.20;;;20.06;44.93;102132.09;12233298;19;20045;-81
2022/05/06 09:01:15;;;;;;;4.97;2.50;;;21.80;40.20;;;19.82;44.77;102076.41;12232726;19;20028;-82
2022/05/06 09:05:21;;;;;;;;;;;22.00;39.90;;;20.31;44.68;102140.91;12237732;19;20078;-81
2022/05/06 09:09:22;;;;;;;21.30;3.37;;;22.30;40.40;;;20.24;44.49;102132.53;12220676;19;19925;-81
2022/05/06 09:13:25;;;;;;;2.97;2.53;;;22.10;39.40;;;20.21;44.15;102135.44;12226439;19;20015;-81
2022/05/06 09:17:28;;;;;;;4.18;2.55;;;22.10;39.10;;;20.28;43.94;102131.38;12222884;19;20021;-81
2022/05/06 09:21:29;;;;;;;5.03;3.00;;;22.20;39.10;;;20.33;43.83;102134.53;12226538;19;20018;-81
2022/05/06 09:25:39;;;;;;;4.60;3.05;;;22.20;39.00;;;20.30;43.80;102117.97;12225607;19;20022;-81
2022/05/06 09:29:47;;;;;;;4.50;3.40;;;22.30;39.00;;;20.24;43.36;102098.06;12225655;19;20042;-81
2022/05/06 09:33:48;;;;;;;4.22;3.05;;;22.20;38.50;;;20.13;43.39;102095.34;12222695;19;20023;-81
2022/05/06 09:37:50;;;;;;;5.65;2.95;;;22.20;38.60;;;20.14;43.81;102096.19;12223624;19;20781;-81
2022/05/06 09:42:04;;;;;;;4.47;3.03;;;22.20;38.70;;;20.43;43.73;102126.72;12222985;19;20033;-81
2022/05/06 09:46:21;;;;;;;3.65;2.95;;;22.20;39.10;;;20.46;43.43;102097.28;12222795;19;20022;-81
2022/05/06 09:50:54;;;;;;;6.80;3.22;;;22.40;39.00;;;20.71;43.31;102120.22;12224841;19;20093;-81
2022/05/06 09:54:56;;;;;;;4.43;2.58;;;22.50;38.40;;;20.72;43.39;102108.63;12222614;19;20386;-81
2022/05/06 09:58:58;;;;;;;3.47;2.40;;;22.50;38.40;;;20.91;42.91;102116.03;12224243;19;20025;-80
2022/05/06 10:03:03;;;;;;;3.05;2.75;;;22.70;38.50;;;20.86;43.00;102077.53;12220155;19;20015;-81
2022/05/06 10:07:11;;;;;;;4.53;2.53;;;22.80;38.30;;;21.03;42.49;102105.44;12222648;19;20022;-81
2022/05/06 10:11:14;;;;;;;2.90;2.60;;;22.80;38.00;;;20.95;42.52;102087.41;12222740;19;20882;-82
2022/05/06 10:15:16;;;;;;;3.85;2.50;;;22.90;37.80;;;21.05;42.23;102098.19;12223295;19;20037;-81
2022/05/06 10:19:28;;;;;;;2.95;2.30;;;22.90;37.70;;;21.08;42.34;102096.13;12221889;19;20018;-81
2022/05/06 10:23:47;;;;;;;3.33;2.33;;;22.90;37.90;;;21.15;41.88;102094.69;12222009;19;20039;-81
2022/05/06 10:32:26;;;;;;;3.80;2.35;;;23.00;37.60;;;21.21;42.07;102096.88;12226484;19;20015;-79
2022/05/06 10:36:43;;;;;;;2.83;2.38;;;23.00;37.40;;;21.28;42.06;102085.75;12228058;19;20034;-81
2022/05/06 10:41:01;;;;;;;3.28;2.20;;;23.10;37.50;;;21.30;41.91;102066.06;12231014;19;20010;-80
2022/05/06 10:45:30;;;;;;;5.47;2.50;;;22.90;37.50;;;21.69;41.88;102081.66;12233257;19;20015;-80
2022/05/06 10:49:38;;;;;;;2.90;2.55;;;23.30;37.50;;;21.86;41.69;102089.09;12245176;19;20015;-81
2022/05/06 10:53:40;;;;;;;4.07;2.15;;;23.50;37.20;;;21.88;41.61;102084.50;12241100;19;20478;-80
2022/05/06 10:58:05;;;;;;;4.32;2.15;;;23.50;37.20;;;21.90;41.15;102068.41;12241035;19;20014;-82
2022/05/06 11:02:13;;;;;;;1.90;1.80;;;23.70;37.00;;;21.95;41.14;102064.38;12242252;19;20019;-85
2022/05/06 11:06:23;;;;;;;4.10;2.10;;;23.60;36.50;;;21.98;41.27;102056.19;12243311;19;20022;-82
2022/05/06 11:10:29;;;;;;;2.85;2.22;;;23.80;36.50;;;22.14;40.62;102052.22;12242107;19;20018;-82
2022/05/06 11:14:31;;;;;;;3.45;2.42;;;23.80;36.60;;;22.30;40.90;102064.19;12240255;19;20021;-81
2022/05/06 11:18:44;;;;;;;2.88;2.20;;;23.80;36.70;;;22.22;40.64;102012.56;12242109;19;20082;-80
2022/05/06 11:23:04;;;;;;;2.78;2.15;;;24.10;36.50;;;22.57;40.55;102053.97;12240986;19;20337;-80
2022/05/06 11:27:14;;;;;;;2.85;2.28;;;24.20;36.40;;;22.70;40.57;102041.31;12238762;19;20046;-81
2022/05/06 11:31:15;;;;;;;4.63;2.22;;;24.40;36.40;;;22.73;40.35;102027.72;12234697;19;20082;-82
2022/05/06 11:35:46;;;;;;;2.47;2.17;;;24.40;36.30;;;22.78;40.19;102022.84;12233658;19;20042;-81
2022/05/06 11:39:49;;;;;;;3.35;1.83;;;24.60;36.10;;;22.77;40.04;102037.16;12233755;19;20053;-81
2022/05/06 11:43:50;;;;;;;3.63;1.90;;;24.60;35.90;;;22.68;40.02;102036.13;12233386;19;20014;-81
2022/05/06 11:48:02;;;;;;;3.00;1.77;;;24.60;35.80;;;22.60;39.87;102035.06;12233552;19;20011;-81
2022/05/06 11:52:04;;;;;;;2.42;1.58;;;24.50;35.70;;;22.41;40.18;102019.81;12235303;19;20023;-82
2022/05/06 11:56:06;;;;;;;2.38;1.95;;;24.40;35.70;;;22.30;40.01;102010.97;12227544;19;20026;-81
2022/05/06 12:00:09;;;;;;;3.53;1.88;;;24.30;35.30;;;22.28;39.84;102015.56;12238939;19;20413;-81
2022/05/06 12:04:13;;;;;;;3.00;1.75;;;24.30;34.90;;;22.26;39.34;102011.34;12236240;19;20358;-81
2022/05/06 12:08:25;;;;;;;3.08;1.67;;;24.20;35.20;;;22.20;39.48;102002.06;12237397;19;20082;-81
2022/05/06 12:12:26;;;;;;;1.75;1.65;;;24.20;35.10;;;22.35;39.54;102025.69;12237428;19;20018;-81
2022/05/06 12:16:28;;;;;;;2.28;1.70;;;24.10;35.20;;;22.25;39.37;102012.28;12232530;19;20015;-83
2022/05/06 12:20:34;;;;;;;2.05;1.75;;;24.20;35.00;;;22.30;38.89;102010.97;12241017;19;20015;-81
2022/05/06 12:24:40;;;;;;;1.50;1.40;;;24.10;35.20;;;22.27;39.11;101989.06;12236183;19;20014;-81
2022/05/06 12:28:48;;;;;;;2.22;1.73;;;24.10;35.00;;;22.51;39.07;102007.41;12237413;19;20014;-81
2022/05/06 12:33:17;;;;;;;2.17;1.52;;;24.30;35.10;;;22.42;38.84;101987.75;12236470;19;20038;-81
2022/05/06 12:37:18;;;;;;;3.67;2.05;;;24.20;34.80;;;22.52;38.56;102007.31;12237141;19;20031;-81
2022/05/06 12:41:24;;;;;;;1.60;1.50;;;24.40;34.80;;;22.44;38.67;102009.78;12238128;19;20482;-81
2022/05/06 12:45:25;;;;;;;;;;;24.20;34.90;;;22.49;39.25;102023.53;12236244;19;20026;-81
2022/05/06 12:49:42;;;;;;;2.33;1.48;;;24.20;35.90;;;22.30;39.13;102010.09;12239770;19;19925;-81
2022/05/06 12:53:43;;;;;;;1.90;1.30;;;24.20;34.80;;;22.34;38.72;102008.88;12237534;19;20007;-81
2022/05/06 12:57:45;;;;;;;2.50;1.40;;;24.10;34.90;;;22.33;38.79;101980.53;12236257;19;20007;-81
2022/05/06 13:01:47;;;;;;;3.03;1.80;;;24.10;34.80;;;22.44;38.43;101983.16;12231026;19;20392;-79
2022/05/06 13:05:50;;;;;;;1.67;1.50;;;24.20;34.40;;;22.43;38.32;101977.94;12234066;19;20010;-80
2022/05/06 13:09:52;;;;;;;6.93;1.50;;;24.30;34.50;;;22.52;38.39;101991.34;12235821;19;20014;-79
2022/05/06 13:13:54;;;;;;;1.15;1.05;;;24.20;34.60;;;22.48;38.46;101984.56;12236811;19;20014;-80
2022/05/06 13:17:56;;;;;;;1.75;1.23;;;24.30;34.60;;;22.50;38.07;101990.63;12234968;19;20018;-79
2022/05/06 13:21:58;;;;;;;0.88;0.88;;;24.30;34.70;;;22.49;38.19;101985.41;12238357;19;20107;-78
2022/05/06 13:26:01;;;;;;;1.33;1.23;;;24.30;34.70;;;22.43;38.45;101962.81;12236291;19;20512;-79
2022/05/06 13:30:04;;;;;;;1.40;1.10;;;24.20;34.90;;;22.53;38.26;101971.72;12236620;19;20047;-80
2022/05/06 13:34:05;;;;;;;1.67;0.93;;;24.40;34.60;;;22.53;38.12;101969.03;12234846;19;20014;-80
2022/05/06 13:38:07;;;;;;;6.45;2.65;;;24.40;34.40;;;22.57;38.16;101968.78;12232723;19;20102;-80
2022/05/06 13:42:09;;;;;;;1.15;1.10;;;24.30;34.30;;;22.59;37.58;101973.00;12237004;19;20038;-82
2022/05/06 13:46:11;;;;;;;1.42;1.30;;;24.40;34.10;;;22.52;37.39;101959.38;12234935;19;20403;-79
2022/05/06 13:50:12;;;;;;;2.25;1.20;;;24.40;34.00;;;22.42;37.39;101936.34;12237860;19;20527;-78
2022/05/06 13:54:14;;;;;;;1.50;1.17;;;24.30;33.90;;;22.65;37.39;101976.94;12233524;19;20035;-79
2022/05/06 14:02:36;;;;;;;2.40;1.15;;;24.40;34.00;;;22.65;37.47;101972.44;12234015;19;20142;-79
2022/05/06 14:06:39;;;;;;;1.20;1.10;;;24.40;34.10;;;22.64;37.27;101956.63;12231786;19;20010;-79
2022/05/06 14:10:40;;;;;;;1.40;1.10;;;24.40;33.90;;;22.58;37.29;101934.03;12234324;19;20022;-80
2022/05/06 14:14:42;;;;;;;1.67;1.20;;;24.40;34.10;;;22.76;37.34;101944.88;12232084;19;20646;-79
2022/05/06 14:18:43;;;;;;;5.15;1.17;;;24.50;34.00;;;22.90;37.12;101949.88;12230107;19;20496;-82
2022/05/06 14:22:45;;;;;;;2.00;1.20;;;24.60;33.70;;;22.81;37.02;101948.00;12234077;19;20019;-81
2022/05/06 14:26:46;;;;;;;1.20;1.10;;;24.60;33.70;;;22.89;36.65;101956.16;12232376;19;20007;-81
2022/05/06 14:30:48;;;;;;;2.45;1.20;;;24.60;33.60;;;22.76;37.10;101923.56;12234495;19;20041;-82
2022/05/06 14:34:49;;;;;;;3.72;1.02;;;24.60;33.70;;;22.96;36.70;101946.69;12232409;19;20018;-79
2022/05/06 14:38:53;;;;;;;3.08;1.30;;;24.60;33.60;;;22.90;36.83;101935.69;12233031;19;20014;-80
2022/05/06 14:42:54;;;;;;;1.10;1.00;;;24.60;33.40;;;22.92;36.59;101950.56;12232264;19;20025;-79
2022/05/06 14:46:59;;;;;;;2.05;1.17;;;24.50;33.50;;;22.84;36.93;101937.06;12233295;19;20006;-78
2022/05/06 14:51:01;;;;;;;1.65;1.55;;;24.70;33.50;;;22.87;36.92;101942.16;12233432;19;20051;-80
2022/05/06 14:55:04;;;;;;;4.35;1.20;;;24.60;33.60;;;22.87;36.88;101915.50;12218073;19;20533;-80
2022/05/06 14:59:05;;;;;;;2.20;1.20;;;24.70;33.80;;;22.97;36.51;101924.38;12230711;19;20015;-80
2022/05/06 15:03:07;;;;;;;1.95;0.98;;;24.70;33.80;;;22.97;36.57;101926.22;12231026;19;20052;-80
2022/05/06 15:07:09;;;;;;;3.90;1.20;;;24.70;33.90;;;23.10;36.58;101931.28;12232403;19;20031;-80
2022/05/06 15:11:10;;;;;;;2.60;1.40;;;24.60;33.70;;;23.15;36.47;101927.25;12233417;19;20527;-79
2022/05/06 15:15:12;;;;;;;1.58;1.48;;;24.70;33.90;;;23.07;36.34;101920.91;12232713;19;20027;-80
2022/05/06 15:19:27;;;;;;;2.17;1.17;;;24.80;33.20;;;22.94;36.27;101908.63;12232606;19;20015;-80
2022/05/06 15:23:28;;;;;;;1.15;1.02;;;24.70;33.60;;;23.02;36.53;101918.66;12222858;19;20050;-80
2022/05/06 15:27:30;;;;;;;1.30;1.20;;;24.70;33.60;;;23.03;36.15;101916.81;12231136;19;20010;-80
2022/05/06 15:31:32;;;;;;;3.10;1.30;;;24.70;33.40;;;22.74;36.51;101866.97;12234907;19;20026;-80
2022/05/06 15:35:33;;;;;;;3.72;1.40;;;24.70;33.70;;;22.61;36.52;101861.88;12238413;19;20022;-80
2022/05/06 15:39:35;;;;;;;2.33;1.30;;;24.60;33.50;;;22.91;36.40;101918.72;12238164;19;20007;-80
2022/05/06 15:43:38;;;;;;;1.10;1.00;;;24.70;33.30;;;22.74;36.24;101909.56;12230623;19;20010;-80
2022/05/06 15:47:39;;;;;;;1.70;1.00;;;24.60;33.40;;;22.65;36.38;101900.56;12234435;19;20028;-79
2022/05/06 15:51:42;;;;;;;1.02;1.02;;;24.60;33.70;;;22.58;36.22;101901.25;12237604;19;20026;-79
2022/05/06 15:55:43;;;;;;;1.13;1.02;;;24.30;33.50;;;22.71;36.36;101920.47;12236942;19;20043;-80
2022/05/06 15:59:45;;;;;;;3.13;1.05;;;24.50;33.70;;;22.71;36.13;101915.16;12238839;19;20025;-80
2022/05/06 16:03:46;;;;;;;1.63;1.52;;;24.40;33.50;;;22.43;36.52;101866.97;12237934;19;20010;-80
2022/05/06 16:07:48;;;;;;;1.65;1.08;;;24.40;33.70;;;22.60;36.41;101901.94;12241892;19;20477;-80
2022/05/06 16:11:49;;;;;;;2.20;1.15;;;24.40;33.50;;;22.54;36.10;101904.16;12239769;19;20014;-80
2022/05/06 16:15:54;;;;;;;1.48;1.15;;;24.30;33.50;;;22.46;36.31;101879.19;12237379;19;20017;-80
2022/05/06 16:19:55;;;;;;;1.90;1.13;;;24.20;33.50;;;22.61;36.30;101909.81;12239224;19;20022;-80
2022/05/06 16:23:57;;;;;;;2.85;1.08;;;24.30;33.60;;;22.60;36.36;101908.13;12238238;19;20015;-80
2022/05/06 16:27:59;;;;;;;1.13;1.02;;;24.20;33.80;;;22.59;36.37;101901.09;12238233;19;20022;-80
2022/05/06 16:32:01;;;;;;;3.42;1.13;;;24.20;33.60;;;22.43;36.38;101888.28;12236456;19;20018;-80
2022/05/06 16:40:23;;;;;;;1.10;0.95;;;24.20;33.60;;;22.44;36.32;101892.66;12239035;19;20014;-80
2022/05/06 16:44:25;;;;;;;1.73;1.08;;;24.20;33.60;;;22.57;35.97;101908.38;12219128;19;20031;-80
2022/05/06 16:48:27;;;;;;;3.78;2.70;;;24.20;33.60;;;22.60;36.15;101896.63;12236823;19;20013;-80
2022/05/06 16:52:34;;;;;;;3.50;2.30;;;24.20;33.40;;;22.58;36.29;101898.59;12239679;19;20015;-80
2022/05/06 16:56:35;;;;;;;3.05;1.85;;;24.30;34.10;;;22.34;35.79;101861.66;12235105;19;20498;-80
2022/05/06 17:00:37;;;;;;;3.30;1.48;;;24.20;33.40;;;22.57;36.10;101900.38;12235777;19;20015;-80
2022/05/06 17:04:39;;;;;;;1.73;1.30;;;24.20;33.40;;;22.23;36.32;101852.75;12236889;19;20014;-80
2022/05/06 17:08:40;;;;;;;1.85;1.63;;;24.20;33.50;;;22.35;35.89;101869.47;12235452;19;20043;-80
2022/05/06 17:12:47;;;;;;;3.50;2.30;;;24.20;33.30;;;22.45;36.17;101880.19;12233241;19;20093;-80
2022/05/06 17:16:49;;;;;;;2.47;2.03;;;24.20;33.60;;;22.47;35.82;101891.53;12233863;19;20026;-81
2022/05/06 17:20:51;;;;;;;1.67;1.52;;;24.20;33.50;;;22.46;36.06;101901.31;12239635;19;20034;-80
2022/05/06 17:24:53;;;;;;;2.67;1.30;;;24.20;33.60;;;22.28;36.04;101871.84;12236004;19;20047;-80
2022/05/06 17:28:55;;;;;;;1.50;1.40;;;24.20;33.60;;;22.09;35.96;101839.78;12236309;19;20011;-80
2022/05/06 17:32:56;;;;;;;1.83;1.27;;;24.10;33.80;;;22.33;35.92;101897.19;12236336;19;20646;-80
2022/05/06 17:36:58;;;;;;;1.73;1.20;;;24.00;33.70;;;22.26;36.41;101891.56;12233458;19;20022;-80